Time;durP1;ratioP1;P1;durP2;ratioP2;P2;SDS_P1;SDS_P2;PMS_P1;PMS_P2;Temp;Humidity;BMP_temperature;BMP_pressure;BME280_temperature;BME280_humidity;BME280_pressure;Samples;Min_cycle;Max_cycle;Signal;HPM_P1;HPM_P2
2022/11/23 00:00:13;;;;;;;5.03;1.60;;;;;;;7.56;100.00;98933.13;684899;28;1017;-67
2022/11/23 00:00:34;;;;;;;6.97;1.87;;;;;;;7.45;100.00;98939.44;685075;28;948;-66
2022/11/23 00:00:54;;;;;;;6.43;1.70;;;;;;;7.55;100.00;98940.09;684303;28;4503;-67
2022/11/23 00:01:15;;;;;;;5.82;1.58;;;;;;;7.61;100.00;98939.97;684888;28;1018;-66
2022/11/23 00:01:36;;;;;;;4.53;1.80;;;;;;;7.66;100.00;98940.72;685272;28;1316;-66
2022/11/23 00:01:57;;;;;;;3.83;1.33;;;;;;;7.59;100.00;98939.16;685492;28;1015;-66
2022/11/23 00:02:17;;;;;;;5.80;1.70;;;;;;;7.54;100.00;98940.13;685098;28;1217;-66
2022/11/23 00:02:37;;;;;;;5.65;1.63;;;;;;;7.54;100.00;98937.53;684742;28;2777;-67
2022/11/23 00:02:59;;;;;;;4.57;1.43;;;;;;;7.47;100.00;98937.63;684141;28;1054;-66
2022/11/23 00:03:19;;;;;;;4.45;1.30;;;;;;;7.46;100.00;98928.16;684247;28;1151;-67
2022/11/23 00:03:40;;;;;;;4.97;1.50;;;;;;;7.43;100.00;98935.97;685283;28;1198;-67
2022/11/23 00:04:03;;;;;;;5.15;1.55;;;;;;;7.46;100.00;98930.75;687862;28;4441;-67
2022/11/23 00:04:24;;;;;;;5.60;1.40;;;;;;;7.45;100.00;98933.38;684612;28;2238;-66
2022/11/23 00:04:45;;;;;;;6.20;1.58;;;;;;;7.53;100.00;98934.06;687097;28;1448;-66
2022/11/23 00:05:07;;;;;;;6.70;1.55;;;;;;;7.50;100.00;98934.13;687613;28;1221;-66
2022/11/23 00:05:29;;;;;;;7.60;1.77;;;;;;;7.49;100.00;98938.47;686466;28;2630;-66
2022/11/23 00:05:49;;;;;;;5.05;1.35;;;;;;;7.45;100.00;98936.81;685126;28;1060;-66
2022/11/23 00:06:10;;;;;;;5.83;1.43;;;;;;;7.42;100.00;98941.22;685672;28;1101;-66
2022/11/23 00:06:31;;;;;;;4.88;1.50;;;;;;;7.41;100.00;98939.53;686972;28;1345;-66
2022/11/23 00:06:52;;;;;;;6.18;1.60;;;;;;;7.45;100.00;98943.78;687086;28;4290;-66
2022/11/23 00:07:12;;;;;;;5.40;1.77;;;;;;;7.51;100.00;98946.25;687434;28;967;-66
2022/11/23 00:07:32;;;;;;;5.85;1.60;;;;;;;7.54;100.00;98934.94;687859;28;794;-67
2022/11/23 00:07:53;;;;;;;6.83;1.90;;;;;;;7.53;100.00;98933.22;687720;28;2984;-66
2022/11/23 00:08:13;;;;;;;7.17;2.13;;;;;;;7.57;100.00;98932.25;687095;28;2945;-66
2022/11/23 00:08:34;;;;;;;6.47;1.75;;;;;;;7.52;100.00;98936.69;687928;28;829;-66
2022/11/23 00:08:54;;;;;;;6.07;2.00;;;;;;;7.54;100.00;98940.13;688215;28;1210;-67
2022/11/23 00:09:14;;;;;;;5.72;1.63;;;;;;;7.50;100.00;98935.00;686740;28;940;-67
2022/11/23 00:09:35;;;;;;;7.03;1.50;;;;;;;7.43;100.00;98933.38;687567;28;1308;-67
2022/11/23 00:09:55;;;;;;;5.95;1.50;;;;;;;7.40;100.00;98937.81;684832;28;4577;-67
2022/11/23 00:10:17;;;;;;;4.80;1.50;;;;;;;7.47;100.00;98937.63;685092;28;971;-67
2022/11/23 00:10:37;;;;;;;4.30;1.50;;;;;;;7.47;100.00;98934.19;684338;28;2883;-66
2022/11/23 00:10:58;;;;;;;4.53;1.50;;;;;;;7.42;100.00;98941.22;685292;28;829;-66
2022/11/23 00:11:20;;;;;;;7.03;1.80;;;;;;;7.44;100.00;98942.06;684571;28;1084;-66
2022/11/23 00:11:40;;;;;;;7.80;1.77;;;;;;;7.43;100.00;98941.19;683975;28;985;-66
2022/11/23 00:12:01;;;;;;;4.67;1.50;;;;;;;7.39;100.00;98934.34;685478;28;889;-70
2022/11/23 00:12:21;;;;;;;5.23;1.60;;;;;;;7.35;100.00;98937.03;685035;28;972;-66
2022/11/23 00:12:42;;;;;;;5.15;1.50;;;;;;;7.41;100.00;98945.56;684492;28;4383;-66
2022/11/23 00:13:03;;;;;;;5.82;1.60;;;;;;;7.49;100.00;98932.41;685101;28;1209;-66
2022/11/23 00:13:23;;;;;;;6.23;1.40;;;;;;;7.46;100.00;98938.53;683703;28;2807;-66
2022/11/23 00:13:44;;;;;;;6.65;1.50;;;;;;;7.50;100.00;98940.19;684365;28;905;-67
2022/11/23 00:14:04;;;;;;;5.60;1.70;;;;;;;7.59;100.00;98928.75;684682;28;822;-66
2022/11/23 00:14:25;;;;;;;5.87;1.47;;;;;;;7.69;100.00;98934.63;685278;28;888;-66
2022/11/23 00:14:45;;;;;;;6.90;1.50;;;;;;;7.74;100.00;98931.91;685103;28;1229;-66
2022/11/23 00:15:09;;;;;;;6.47;1.60;;;;;;;7.79;100.00;98936.13;685514;28;1350;-66
2022/11/23 00:15:29;;;;;;;5.88;1.73;;;;;;;7.79;100.00;98933.53;684712;28;994;-67
2022/11/23 00:15:49;;;;;;;4.57;1.63;;;;;;;7.66;100.00;98939.88;683799;28;4554;-66
2022/11/23 00:16:16;;;;;;;4.57;1.40;;;;;;;7.59;100.00;98938.31;683939;28;1052;-65
2022/11/23 00:16:36;;;;;;;3.80;1.40;;;;;;;7.53;100.00;98936.66;684570;28;960;-66
2022/11/23 00:16:57;;;;;;;4.27;1.50;;;;;;;7.48;100.00;98944.56;684896;28;988;-66
2022/11/23 00:17:17;;;;;;;5.93;1.75;;;;;;;7.47;100.00;98937.63;685128;28;1092;-67
2022/11/23 00:17:37;;;;;;;6.33;1.57;;;;;;;7.51;100.00;98938.44;685044;28;1910;-66
2022/11/23 00:17:59;;;;;;;5.97;1.60;;;;;;;7.61;100.00;98946.91;684788;28;913;-67
2022/11/23 00:18:19;;;;;;;5.47;1.60;;;;;;;7.59;100.00;98935.72;684511;28;1039;-66
2022/11/23 00:18:40;;;;;;;5.00;1.60;;;;;;;7.56;100.00;98940.94;683406;28;4342;-66
2022/11/23 00:19:01;;;;;;;5.70;1.50;;;;;;;7.57;100.00;98940.06;685096;28;865;-66
2022/11/23 00:19:21;;;;;;;4.80;1.50;;;;;;;7.62;100.00;98938.25;684789;28;1068;-66
2022/11/23 00:19:42;;;;;;;5.38;1.60;;;;;;;7.60;100.00;98935.66;684734;28;976;-67
2022/11/23 00:20:03;;;;;;;3.80;1.43;;;;;;;7.62;100.00;98935.63;684992;28;1455;-65
2022/11/23 00:20:24;;;;;;;5.60;1.50;;;;;;;7.65;100.00;98930.38;684733;28;4089;-65
2022/11/23 00:20:44;;;;;;;6.70;1.70;;;;;;;7.65;100.00;98938.16;684598;28;1444;-66
2022/11/23 00:21:10;;;;;;;6.15;1.50;;;;;;;7.73;100.00;98938.03;682471;28;1350;-66
2022/11/23 00:21:32;;;;;;;5.78;1.40;;;;;;;7.80;100.00;98948.25;681377;29;3116;-66
2022/11/23 00:21:52;;;;;;;6.10;1.58;;;;;;;7.80;100.00;98937.84;680748;28;5224;-66
2022/11/23 00:22:12;;;;;;;4.77;1.40;;;;;;;7.79;100.00;98941.31;682604;28;1048;-66
2022/11/23 00:22:34;;;;;;;4.85;1.38;;;;;;;7.81;100.00;98938.72;682564;29;931;-66
2022/11/23 00:22:54;;;;;;;6.20;1.50;;;;;;;7.78;100.00;98939.63;683873;28;988;-68
2022/11/23 00:23:15;;;;;;;6.43;1.70;;;;;;;7.77;100.00;98939.66;685950;28;1228;-66
2022/11/23 00:23:36;;;;;;;5.93;2.00;;;;;;;7.76;100.00;98941.41;686288;28;1133;-66
2022/11/23 00:23:57;;;;;;;6.70;1.45;;;;;;;7.70;100.00;98944.13;685022;28;2988;-66
2022/11/23 00:24:17;;;;;;;4.07;1.30;;;;;;;7.66;100.00;98945.09;684827;28;1011;-66
2022/11/23 00:24:37;;;;;;;3.93;1.30;;;;;;;7.61;100.00;98941.72;683269;28;863;-66
2022/11/23 00:24:58;;;;;;;4.85;1.50;;;;;;;7.61;100.00;98939.97;683116;28;4350;-66
2022/11/23 00:25:18;;;;;;;5.03;1.53;;;;;;;7.61;100.00;98937.34;684514;28;1243;-66
2022/11/23 00:25:38;;;;;;;5.37;1.60;;;;;;;7.57;100.00;98938.31;684853;28;1373;-66
2022/11/23 00:25:59;;;;;;;5.65;1.60;;;;;;;7.60;100.00;98942.59;684646;28;1413;-66
2022/11/23 00:26:19;;;;;;;3.97;1.30;;;;;;;7.53;100.00;98939.25;684772;28;1264;-66
2022/11/23 00:26:40;;;;;;;4.57;1.30;;;;;;;7.67;100.00;98941.59;683569;28;2749;-65
2022/11/23 00:27:00;;;;;;;5.00;1.40;;;;;;;7.78;100.00;98949.16;684715;28;1015;-67
2022/11/23 00:27:20;;;;;;;4.65;1.48;;;;;;;7.74;100.00;98938.00;684638;28;1210;-66
2022/11/23 00:27:41;;;;;;;4.93;1.50;;;;;;;7.79;100.00;98951.72;684093;28;4407;-66
2022/11/23 00:28:03;;;;;;;4.82;1.42;;;;;;;7.79;100.00;98946.53;684671;28;2055;-66
2022/11/23 00:28:23;;;;;;;4.60;1.30;;;;;;;7.83;100.00;98942.13;684443;28;990;-66
2022/11/23 00:28:44;;;;;;;5.87;1.40;;;;;;;7.83;100.00;98945.56;684357;28;1215;-66
2022/11/23 00:29:05;;;;;;;4.93;1.40;;;;;;;7.86;100.00;98939.44;684379;28;1184;-66
2022/11/23 00:29:26;;;;;;;5.80;1.30;;;;;;;7.89;100.00;98943.75;683752;28;2804;-66
2022/11/23 00:29:46;;;;;;;5.93;1.50;;;;;;;7.78;100.00;98939.63;684588;28;1294;-66
2022/11/23 00:30:07;;;;;;;4.87;1.33;;;;;;;7.75;100.00;98942.28;684199;28;1219;-65
2022/11/23 00:30:28;;;;;;;5.07;1.50;;;;;;;7.66;100.00;98939.88;684940;28;1434;-66
2022/11/23 00:30:51;;;;;;;4.67;1.80;;;;;;;7.63;100.00;98935.59;684125;28;4388;-66
2022/11/23 00:31:14;;;;;;;5.78;1.70;;;;;;;7.60;100.00;98934.78;682592;28;1044;-66
2022/11/23 00:31:34;;;;;;;6.10;1.60;;;;;;;7.65;100.00;98935.56;681278;28;2008;-66
2022/11/23 00:31:54;;;;;;;6.15;1.60;;;;;;;7.61;100.00;98936.50;681711;28;2755;-66
2022/11/23 00:32:15;;;;;;;5.83;1.47;;;;;;;7.58;100.00;98931.38;681737;28;1153;-66
2022/11/23 00:32:35;;;;;;;6.13;1.53;;;;;;;7.62;100.00;98938.25;682015;29;1196;-67
2022/11/23 00:32:56;;;;;;;5.25;1.30;;;;;;;7.62;100.00;98939.06;682335;28;1093;-67
2022/11/23 00:33:16;;;;;;;4.77;1.30;;;;;;;7.60;100.00;98946.06;684690;28;1028;-65
2022/11/23 00:33:37;;;;;;;4.53;1.40;;;;;;;7.58;100.00;98941.78;685097;28;1309;-66
2022/11/23 00:33:58;;;;;;;5.75;1.50;;;;;;;7.61;100.00;98937.34;683645;28;4410;-66
2022/11/23 00:34:18;;;;;;;5.40;1.30;;;;;;;7.60;100.00;98940.00;684629;28;1126;-65
2022/11/23 00:34:39;;;;;;;5.17;1.50;;;;;;;7.57;100.00;98950.47;684073;28;2769;-66
2022/11/23 00:34:59;;;;;;;5.25;1.45;;;;;;;7.53;100.00;98943.59;684484;28;1235;-65
2022/11/23 00:35:20;;;;;;;4.87;1.30;;;;;;;7.49;100.00;98948.00;684665;28;1074;-66
2022/11/23 00:35:41;;;;;;;4.78;1.50;;;;;;;7.46;100.00;98948.94;684799;28;1152;-66
2022/11/23 00:36:21;;;;;;;4.97;1.40;;;;;;;7.49;100.00;98948.00;681985;29;1632;-65
2022/11/23 00:36:41;;;;;;;5.50;1.30;;;;;;;7.53;100.00;98941.84;683616;28;4533;-65
2022/11/23 00:37:01;;;;;;;4.18;1.30;;;;;;;7.57;100.00;98940.91;684445;28;1287;-66
2022/11/23 00:37:22;;;;;;;3.17;1.30;;;;;;;7.58;100.00;98936.59;681496;28;2679;-66
2022/11/23 00:37:42;;;;;;;4.27;1.20;;;;;;;7.57;100.00;98932.25;681804;29;1943;-65
2022/11/23 00:38:04;;;;;;;6.28;1.25;;;;;;;7.53;100.00;98938.41;679525;29;1533;-66
2022/11/23 00:38:25;;;;;;;6.37;1.37;;;;;;;7.49;100.00;98942.81;678607;29;1164;-65
2022/11/23 00:38:47;;;;;;;4.22;1.50;;;;;;;7.46;100.00;98940.28;676726;29;1223;-66
2022/11/23 00:39:07;;;;;;;4.80;1.30;;;;;;;7.52;100.00;98931.50;677065;29;5429;-66
2022/11/23 00:39:28;;;;;;;5.30;1.30;;;;;;;7.53;100.00;98943.59;680135;29;1585;-67
2022/11/23 00:39:48;;;;;;;3.50;1.30;;;;;;;7.49;100.00;98935.88;682141;28;4449;-66
2022/11/23 00:40:09;;;;;;;3.53;1.20;;;;;;;7.47;100.00;98945.44;678793;29;2676;-66
2022/11/23 00:40:29;;;;;;;4.95;1.25;;;;;;;7.44;100.00;98932.50;679233;29;1342;-66
2022/11/23 00:40:57;;;;;;;3.90;1.20;;;;;;;7.54;100.00;98940.13;679164;29;1274;-66
2022/11/23 00:41:20;;;;;;;5.63;1.35;;;;;;;7.59;100.00;98941.75;676567;29;1135;-66
2022/11/23 00:41:40;;;;;;;4.05;1.20;;;;;;;7.71;100.00;98938.03;676832;29;1213;-66
2022/11/23 00:42:01;;;;;;;4.45;1.20;;;;;;;7.67;100.00;98939.00;680980;28;1311;-65
2022/11/23 00:42:21;;;;;;;3.60;1.10;;;;;;;7.66;100.00;98943.34;683428;28;1106;-66
2022/11/23 00:42:41;;;;;;;4.73;1.33;;;;;;;7.75;100.00;98942.28;680076;28;4347;-66
2022/11/23 00:43:02;;;;;;;4.90;1.33;;;;;;;7.78;100.00;98938.75;680387;28;1253;-66
2022/11/23 00:43:22;;;;;;;5.03;1.25;;;;;;;7.76;100.00;98946.59;681983;28;1131;-66
2022/11/23 00:43:45;;;;;;;5.53;1.40;;;;;;;7.71;100.00;98939.78;681119;28;1220;-65
2022/11/23 00:44:06;;;;;;;4.82;1.20;;;;;;;7.69;100.00;98939.81;680567;28;1252;-65
2022/11/23 00:44:27;;;;;;;5.30;1.50;;;;;;;7.80;100.00;98939.59;682150;28;1211;-65
2022/11/23 00:44:47;;;;;;;3.85;1.15;;;;;;;7.85;100.00;98945.56;684479;28;1403;-66
2022/11/23 00:45:08;;;;;;;5.33;1.20;;;;;;;7.87;100.00;98948.97;685028;28;1203;-65
2022/11/23 00:45:28;;;;;;;3.97;1.52;;;;;;;8.00;100.00;98944.34;686649;28;1164;-67
2022/11/23 00:45:49;;;;;;;3.40;1.13;;;;;;;7.97;100.00;98944.44;685723;28;4380;-66
2022/11/23 00:46:15;;;;;;;3.50;1.15;;;;;;;7.91;100.00;98944.56;685596;28;1385;-65
2022/11/23 00:46:35;;;;;;;5.18;1.25;;;;;;;7.83;100.00;98950.78;682634;28;2229;-65
2022/11/23 00:46:57;;;;;;;5.18;1.30;;;;;;;7.80;100.00;98943.03;681599;29;1569;-66
2022/11/23 00:47:18;;;;;;;4.97;1.30;;;;;;;7.75;100.00;98952.69;682300;28;1066;-66
2022/11/23 00:47:44;;;;;;;4.22;1.30;;;;;;;7.69;100.00;98944.19;679533;29;1838;-65
2022/11/23 00:48:04;;;;;;;4.95;1.33;;;;;;;7.69;100.00;98949.38;678534;29;2957;-65
2022/11/23 00:48:25;;;;;;;3.65;1.17;;;;;;;7.80;100.00;98945.66;680419;29;1100;-65
2022/11/23 00:48:47;;;;;;;3.33;1.07;;;;;;;7.89;100.00;98946.34;682460;28;4803;-65
2022/11/23 00:49:08;;;;;;;4.13;1.20;;;;;;;7.91;100.00;98949.78;684075;28;1352;-66
2022/11/23 00:49:29;;;;;;;4.32;1.23;;;;;;;7.94;100.00;98950.56;684991;28;1201;-66
2022/11/23 00:49:49;;;;;;;4.33;1.20;;;;;;;7.93;100.00;98953.19;684813;28;1647;-66
2022/11/23 00:50:11;;;;;;;4.13;1.00;;;;;;;7.95;100.00;98952.28;684479;28;1513;-66
2022/11/23 00:50:31;;;;;;;5.25;1.30;;;;;;;7.92;100.00;98946.28;684300;28;2767;-65
2022/11/23 00:50:52;;;;;;;5.50;1.47;;;;;;;7.93;100.00;98945.38;684294;28;1171;-66
2022/11/23 00:51:15;;;;;;;4.25;1.20;;;;;;;7.91;100.00;98949.78;683960;28;1073;-65
2022/11/23 00:51:36;;;;;;;5.28;1.40;;;;;;;8.03;100.00;98954.72;684500;28;1009;-66
2022/11/23 00:51:57;;;;;;;4.30;1.10;;;;;;;8.04;100.00;98961.63;684354;28;4319;-65
2022/11/23 00:52:17;;;;;;;5.13;1.30;;;;;;;8.01;100.00;98946.06;684738;28;1013;-65
2022/11/23 00:52:37;;;;;;;5.03;1.23;;;;;;;7.96;100.00;98947.91;684981;28;1120;-65
2022/11/23 00:52:58;;;;;;;4.65;1.20;;;;;;;7.93;100.00;98953.19;684751;28;1168;-66
2022/11/23 00:53:18;;;;;;;4.20;1.10;;;;;;;7.94;100.00;98954.91;683898;28;2567;-65
2022/11/23 00:53:39;;;;;;;4.03;1.13;;;;;;;7.94;100.00;98953.16;684584;28;1141;-66
2022/11/23 00:54:00;;;;;;;4.32;1.50;;;;;;;7.89;100.00;98951.53;682108;28;1192;-66
2022/11/23 00:54:21;;;;;;;4.47;1.45;;;;;;;7.83;100.00;98958.59;679534;29;1474;-66
2022/11/23 00:54:41;;;;;;;4.22;1.30;;;;;;;7.81;100.00;98954.31;676540;29;4385;-65
2022/11/23 00:55:02;;;;;;;3.60;1.20;;;;;;;7.76;100.00;98950.97;679555;29;1156;-66
2022/11/23 00:55:23;;;;;;;4.00;1.00;;;;;;;7.72;100.00;98957.94;679302;29;1073;-65
2022/11/23 00:55:53;;;;;;;5.10;1.17;;;;;;;7.83;100.00;98953.38;679456;29;1197;-65
2022/11/23 00:56:14;;;;;;;3.95;1.02;;;;;;;7.93;100.00;98953.19;679775;29;1305;-66
2022/11/23 00:56:35;;;;;;;3.65;1.10;;;;;;;7.90;100.00;98950.66;679431;29;1227;-66
2022/11/23 00:56:55;;;;;;;4.50;1.20;;;;;;;7.93;100.00;98955.78;682052;29;1212;-66
2022/11/23 00:57:15;;;;;;;6.10;1.30;;;;;;;7.92;100.00;98956.69;681468;29;1029;-65
2022/11/23 00:57:37;;;;;;;5.97;1.20;;;;;;;8.00;100.00;98954.78;678278;29;1971;-65
2022/11/23 00:57:58;;;;;;;4.00;0.90;;;;;;;8.05;100.00;98955.53;677267;28;4674;-66
2022/11/23 00:58:18;;;;;;;3.47;1.10;;;;;;;8.06;100.00;98959.84;679495;28;1058;-66
2022/11/23 00:58:39;;;;;;;4.35;1.17;;;;;;;8.01;100.00;98959.09;681313;28;2684;-65
2022/11/23 00:59:01;;;;;;;3.55;1.10;;;;;;;8.00;100.00;98957.38;678767;28;1204;-65
2022/11/23 00:59:22;;;;;;;3.50;0.90;;;;;;;7.98;100.00;98960.00;679670;29;1033;-65
2022/11/23 00:59:42;;;;;;;3.97;1.10;;;;;;;7.92;100.00;98952.34;681415;28;1139;-65
2022/11/23 01:00:04;;;;;;;3.60;1.00;;;;;;;7.93;100.00;98964.44;679343;29;1441;-67
2022/11/23 01:00:24;;;;;;;3.35;1.08;;;;;;;7.87;100.00;98959.38;679783;29;1267;-65
2022/11/23 01:00:45;;;;;;;3.47;1.00;;;;;;;7.86;100.00;98960.25;679394;29;4409;-65
2022/11/23 01:01:10;;;;;;;4.47;1.08;;;;;;;7.84;100.00;98957.69;682364;29;1256;-65
2022/11/23 01:01:34;;;;;;;3.67;1.00;;;;;;;7.94;100.00;98960.13;677855;29;2754;-66
2022/11/23 01:01:54;;;;;;;4.03;1.17;;;;;;;7.90;100.00;98963.69;679117;29;1330;-65
2022/11/23 01:02:15;;;;;;;4.17;1.17;;;;;;;7.84;100.00;98959.47;682292;28;1235;-65
2022/11/23 01:02:35;;;;;;;4.55;1.10;;;;;;;7.88;100.00;98957.63;680811;29;1207;-66
2022/11/23 01:02:55;;;;;;;4.13;1.10;;;;;;;7.83;100.00;98968.16;682064;28;1298;-66
2022/11/23 01:03:16;;;;;;;4.17;1.10;;;;;;;7.91;100.00;98968.00;682236;28;1569;-67
2022/11/23 01:03:42;;;;;;;4.57;1.30;;;;;;;7.91;100.00;98965.41;684322;28;1685;-64
2022/11/23 01:04:07;;;;;;;3.58;1.20;;;;;;;7.93;100.00;98974.00;685329;28;6290;-66
2022/11/23 01:04:28;;;;;;;5.30;1.30;;;;;;;7.89;100.00;98964.56;686690;28;1324;-65
2022/11/23 01:04:51;;;;;;;4.30;1.10;;;;;;;7.99;100.00;98966.09;684757;28;1399;-66
2022/11/23 01:05:12;;;;;;;4.47;1.30;;;;;;;8.04;100.00;98965.97;684331;28;1762;-65
2022/11/23 01:05:35;;;;;;;4.30;1.20;;;;;;;8.06;100.00;98970.28;684301;28;1227;-66
2022/11/23 01:06:02;;;;;;;5.20;1.10;;;;;;;7.99;100.00;98966.94;681445;29;2104;-64
2022/11/23 01:06:34;;;;;;;2.70;1.08;;;;;;;8.01;100.00;98972.94;681393;28;1056;-65
2022/11/23 01:06:56;;;;;;;3.08;0.98;;;;;;;8.05;100.00;98962.50;683836;28;4333;-64
2022/11/23 01:07:16;;;;;;;4.57;1.10;;;;;;;7.98;100.00;98969.56;687135;28;1052;-65
2022/11/23 01:07:37;;;;;;;3.40;1.00;;;;;;;8.01;100.00;98970.34;687058;28;1043;-65
2022/11/23 01:07:57;;;;;;;4.33;1.07;;;;;;;8.12;100.00;98972.72;687489;28;1204;-65
2022/11/23 01:08:18;;;;;;;4.18;1.10;;;;;;;8.05;100.00;98967.69;687437;28;1257;-66
2022/11/23 01:08:39;;;;;;;2.77;0.90;;;;;;;7.96;100.00;98969.59;687605;28;1176;-67
2022/11/23 01:09:23;;;;;;;4.20;1.02;;;;;;;7.92;100.00;98973.16;687794;28;1168;-66
2022/11/23 01:09:44;;;;;;;3.28;1.20;;;;;;;7.96;100.00;98966.13;688638;28;4444;-66
2022/11/23 01:10:07;;;;;;;3.42;1.27;;;;;;;7.96;100.00;98971.34;687843;28;1172;-65
2022/11/23 01:10:28;;;;;;;4.45;1.40;;;;;;;7.94;100.00;98966.16;687965;28;1186;-65
2022/11/23 01:10:49;;;;;;;4.72;1.17;;;;;;;7.92;100.00;98972.28;685023;28;1224;-65
2022/11/23 01:11:11;;;;;;;3.57;1.20;;;;;;;7.99;100.00;98971.28;683893;28;1426;-66
2022/11/23 01:11:31;;;;;;;3.53;1.17;;;;;;;8.06;100.00;98972.00;684172;28;1404;-65
2022/11/23 01:11:54;;;;;;;4.22;1.42;;;;;;;8.06;100.00;98970.28;684874;28;2883;-66
2022/11/23 01:12:17;;;;;;;3.55;1.02;;;;;;;8.00;100.00;98975.59;687452;28;1199;-65
2022/11/23 01:12:40;;;;;;;3.15;1.10;;;;;;;7.97;100.00;98970.44;683842;28;4482;-66
2022/11/23 01:13:01;;;;;;;3.07;0.90;;;;;;;8.06;100.00;98965.06;684737;28;892;-65
2022/11/23 01:13:21;;;;;;;3.00;0.90;;;;;;;8.13;100.00;98966.63;682044;28;2040;-64
2022/11/23 01:13:42;;;;;;;5.18;1.40;;;;;;;8.12;100.00;98970.13;682390;29;838;-65
2022/11/23 01:14:04;;;;;;;5.30;1.20;;;;;;;8.08;100.00;98971.06;679837;28;1267;-65
2022/11/23 01:14:25;;;;;;;4.10;1.15;;;;;;;8.10;100.00;98974.50;680522;29;1289;-65
2022/11/23 01:14:45;;;;;;;3.35;1.20;;;;;;;8.03;100.00;98972.94;677851;29;3142;-65
2022/11/23 01:15:06;;;;;;;3.60;1.30;;;;;;;8.01;100.00;98974.72;680308;29;893;-67
2022/11/23 01:15:26;;;;;;;4.70;1.20;;;;;;;7.94;100.00;98967.94;679431;28;1449;-65
2022/11/23 01:15:48;;;;;;;3.37;0.90;;;;;;;7.91;100.00;98975.81;679081;29;4286;-66
2022/11/23 01:16:14;;;;;;;3.88;1.10;;;;;;;7.84;100.00;98975.91;681773;28;1045;-64
2022/11/23 01:16:38;;;;;;;4.00;1.00;;;;;;;7.82;100.00;98964.69;684431;28;3937;-67
2022/11/23 01:16:58;;;;;;;4.50;1.10;;;;;;;7.86;100.00;98972.44;684565;28;1255;-65
2022/11/23 01:17:19;;;;;;;3.92;1.10;;;;;;;7.97;100.00;98971.31;685690;28;2831;-66
2022/11/23 01:17:39;;;;;;;3.00;1.07;;;;;;;7.98;100.00;98969.56;687738;28;2418;-65
2022/11/23 01:18:02;;;;;;;4.00;1.00;;;;;;;8.00;100.00;98975.59;682215;29;1541;-66
2022/11/23 01:18:25;;;;;;;2.80;0.95;;;;;;;8.00;100.00;98975.59;679010;29;1371;-65
2022/11/23 01:18:45;;;;;;;4.13;1.00;;;;;;;8.01;100.00;98972.09;679655;28;4596;-66
2022/11/23 01:19:09;;;;;;;4.45;1.10;;;;;;;8.05;100.00;98972.91;682519;28;971;-66
2022/11/23 01:19:30;;;;;;;3.25;1.02;;;;;;;8.05;100.00;98973.75;682155;28;1227;-66
2022/11/23 01:19:50;;;;;;;2.77;0.97;;;;;;;7.98;100.00;98973.03;679340;28;2956;-66
2022/11/23 01:20:10;;;;;;;2.70;1.00;;;;;;;8.03;100.00;98975.53;682816;28;1297;-66
2022/11/23 01:20:33;;;;;;;2.35;0.93;;;;;;;7.97;100.00;98966.09;684865;28;853;-65
2022/11/23 01:20:54;;;;;;;4.05;1.10;;;;;;;7.95;100.00;98972.25;684886;28;928;-66
2022/11/23 01:21:15;;;;;;;4.50;1.10;;;;;;;7.99;100.00;98973.91;684669;28;1024;-67
2022/11/23 01:21:36;;;;;;;3.00;0.90;;;;;;;8.01;100.00;98975.56;685588;28;1233;-65
2022/11/23 01:21:56;;;;;;;2.90;0.95;;;;;;;8.13;100.00;98973.59;687552;28;4278;-65
2022/11/23 01:22:19;;;;;;;3.08;0.85;;;;;;;8.17;100.00;98972.66;687007;28;1279;-66
2022/11/23 01:22:39;;;;;;;3.28;1.10;;;;;;;8.11;100.00;98978.84;686727;28;2852;-65
2022/11/23 01:22:59;;;;;;;2.97;1.20;;;;;;;8.02;100.00;98968.63;687712;28;1168;-67
2022/11/23 01:23:20;;;;;;;3.60;1.30;;;;;;;7.97;100.00;98973.06;686529;28;1119;-66
2022/11/23 01:23:40;;;;;;;3.30;1.00;;;;;;;7.92;100.00;98969.69;684915;28;1197;-66
2022/11/23 01:24:05;;;;;;;3.97;1.07;;;;;;;7.89;100.00;98974.97;682434;28;1164;-67
2022/11/23 01:24:25;;;;;;;3.83;1.27;;;;;;;7.90;100.00;98979.28;681552;28;1281;-66
2022/11/23 01:24:46;;;;;;;6.00;1.10;;;;;;;7.91;100.00;98974.03;681279;28;4303;-65
2022/11/23 01:25:07;;;;;;;4.57;1.10;;;;;;;8.00;100.00;98978.19;682465;28;1228;-65
2022/11/23 01:25:27;;;;;;;4.27;1.10;;;;;;;8.06;100.00;98979.81;682362;28;3143;-66
2022/11/23 01:25:49;;;;;;;3.55;0.90;;;;;;;8.07;100.00;98981.53;685011;28;1451;-66
2022/11/23 01:26:10;;;;;;;3.43;1.00;;;;;;;8.09;100.00;98983.22;684815;28;905;-66
2022/11/23 01:26:30;;;;;;;2.90;0.90;;;;;;;8.12;100.00;98979.69;684028;28;905;-65
2022/11/23 01:26:53;;;;;;;3.00;0.90;;;;;;;8.15;100.00;98985.66;687137;28;1372;-65
2022/11/23 01:27:13;;;;;;;3.97;1.20;;;;;;;8.14;100.00;98981.38;686333;28;1067;-65
2022/11/23 01:27:34;;;;;;;4.50;0.90;;;;;;;8.10;100.00;98982.31;685070;28;940;-66
2022/11/23 01:27:54;;;;;;;2.72;0.98;;;;;;;8.08;100.00;98978.88;683898;28;4242;-66
2022/11/23 01:28:16;;;;;;;3.88;1.00;;;;;;;8.10;100.00;98979.72;684444;28;1138;-66
2022/11/23 01:28:38;;;;;;;3.47;1.00;;;;;;;8.11;100.00;98978.84;684539;28;1374;-65
2022/11/23 01:28:59;;;;;;;2.22;0.90;;;;;;;8.08;100.00;98980.63;681689;28;1208;-66
2022/11/23 01:29:20;;;;;;;2.53;0.80;;;;;;;8.11;100.00;98985.78;682510;28;900;-66
2022/11/23 01:29:40;;;;;;;3.17;0.93;;;;;;;8.08;100.00;98981.47;682470;28;967;-65
2022/11/23 01:30:01;;;;;;;3.53;1.10;;;;;;;8.03;100.00;98980.75;685254;28;786;-65
2022/11/23 01:30:21;;;;;;;3.87;1.20;;;;;;;7.99;100.00;98985.16;684866;28;1171;-65
2022/11/23 01:30:43;;;;;;;4.85;1.50;;;;;;;7.98;100.00;98983.44;683900;28;4285;-67
2022/11/23 01:31:09;;;;;;;3.80;1.10;;;;;;;7.95;100.00;98982.66;687373;28;856;-66
2022/11/23 01:31:29;;;;;;;4.93;1.13;;;;;;;8.10;100.00;98982.31;686578;28;1027;-65
2022/11/23 01:31:50;;;;;;;4.03;1.13;;;;;;;8.16;100.00;98990.00;687544;28;1003;-66
2022/11/23 01:32:10;;;;;;;7.22;1.27;;;;;;;8.11;100.00;98989.25;687554;28;1255;-65
2022/11/23 01:32:31;;;;;;;4.95;1.10;;;;;;;8.06;100.00;98985.00;683346;28;2039;-66
2022/11/23 01:32:52;;;;;;;3.93;1.00;;;;;;;8.04;100.00;98987.66;683368;28;1180;-66
2022/11/23 01:33:12;;;;;;;3.45;1.00;;;;;;;8.06;100.00;98988.50;681338;28;2818;-66
2022/11/23 01:33:33;;;;;;;4.57;1.00;;;;;;;8.14;100.00;98985.69;680935;28;1591;-66
2022/11/23 01:33:56;;;;;;;5.85;1.48;;;;;;;8.11;100.00;98984.03;678861;29;4457;-66
2022/11/23 01:34:17;;;;;;;3.80;1.15;;;;;;;8.14;100.00;98993.50;675360;29;1217;-65
2022/11/23 01:34:37;;;;;;;4.80;1.20;;;;;;;8.20;100.00;98985.59;679627;29;867;-65
2022/11/23 01:34:58;;;;;;;5.88;1.27;;;;;;;8.18;100.00;98989.94;680287;28;1258;-66
2022/11/23 01:35:18;;;;;;;5.07;1.20;;;;;;;8.16;100.00;98986.53;684449;28;1224;-66
2022/11/23 01:35:38;;;;;;;2.95;0.95;;;;;;;8.20;100.00;98993.41;685395;28;1214;-66
2022/11/23 01:35:59;;;;;;;3.23;1.10;;;;;;;8.29;100.00;98992.31;681216;28;2905;-66
2022/11/23 01:36:22;;;;;;;3.35;0.90;;;;;;;8.35;100.00;98997.41;680675;28;1424;-66
2022/11/23 01:36:44;;;;;;;3.47;0.95;;;;;;;8.32;100.00;98982.72;675920;29;4316;-65
2022/11/23 01:37:04;;;;;;;4.60;1.10;;;;;;;8.35;100.00;98987.00;677696;29;1099;-65
2022/11/23 01:37:25;;;;;;;4.30;1.00;;;;;;;8.37;100.00;98990.41;678413;29;1053;-66
2022/11/23 01:37:46;;;;;;;4.75;1.17;;;;;;;8.35;100.00;98987.00;678903;29;1968;-66
2022/11/23 01:38:08;;;;;;;5.05;1.20;;;;;;;8.26;100.00;98981.97;681948;28;1287;-65
2022/11/23 01:38:28;;;;;;;3.65;1.20;;;;;;;8.19;100.00;98992.50;685253;28;2820;-65
2022/11/23 01:38:50;;;;;;;3.17;1.20;;;;;;;8.21;100.00;98983.81;687284;28;1277;-66
2022/11/23 01:39:11;;;;;;;2.97;1.00;;;;;;;8.26;100.00;98988.03;686888;28;1027;-65
2022/11/23 01:39:32;;;;;;;4.78;1.20;;;;;;;8.31;100.00;98988.78;687784;28;885;-66
2022/11/23 01:39:52;;;;;;;3.50;1.00;;;;;;;8.28;100.00;98990.59;686892;28;4437;-66
2022/11/23 01:40:12;;;;;;;4.03;1.10;;;;;;;8.29;100.00;98993.19;686890;28;976;-66
2022/11/23 01:40:41;;;;;;;3.83;1.00;;;;;;;8.21;100.00;98989.91;690182;28;1281;-65
2022/11/23 01:41:04;;;;;;;5.20;1.10;;;;;;;8.13;100.00;98990.06;688819;28;2402;-66
2022/11/23 01:41:29;;;;;;;4.15;1.20;;;;;;;8.17;100.00;98991.72;685470;28;2875;-66
2022/11/23 01:41:50;;;;;;;2.65;0.93;;;;;;;8.23;100.00;98989.88;685353;28;967;-65
2022/11/23 01:42:10;;;;;;;3.33;1.10;;;;;;;8.23;100.00;98984.66;686652;28;1301;-67
2022/11/23 01:42:58;;;;;;;3.25;1.00;;;;;;;8.13;100.00;98991.81;684246;28;857;-66
2022/11/23 01:43:18;;;;;;;4.47;1.00;;;;;;;8.17;100.00;98989.09;683926;28;4704;-66
2022/11/23 01:43:39;;;;;;;3.78;1.42;;;;;;;8.13;100.00;98992.66;687493;28;1284;-66